Time;durP1;ratioP1;P1;durP2;ratioP2;P2;SDS_P1;SDS_P2;PMS_P1;PMS_P2;Temp;Humidity;BMP_temperature;BMP_pressure;BME280_temperature;BME280_humidity;BME280_pressure;Samples;Min_cycle;Max_cycle;Signal;HPM_P1;HPM_P2
2023/05/21 00:02:40;;;;;;;;;;;;;;;13.79;90.25;101786.81;10629220;27;19923;-68
2023/05/21 00:07:43;;;;;;;;;;;;;;;13.87;89.91;101787.25;10593921;27;19927;-67
2023/05/21 00:12:45;;;;;;;;;;;;;;;13.80;90.35;101785.91;10565989;28;20015;-68
2023/05/21 00:17:47;;;;;;;;;;;;;;;13.99;89.34;101788.34;10584857;28;19934;-68
2023/05/21 00:22:50;;;;;;;;;;;;;;;14.18;87.17;101776.78;10578275;22;19946;-65
2023/05/21 00:27:53;;;;;;;;;;;;;;;14.30;85.73;101771.63;10627999;27;19923;-65
2023/05/21 00:32:57;;;;;;;;;;;;;;;14.12;87.48;101756.88;10572055;27;20660;-65
2023/05/21 00:38:00;;;;;;;;;;;;;;;14.09;89.19;101763.19;10606779;27;19924;-64
2023/05/21 00:43:02;;;;;;;;;;;;;;;14.10;88.02;101759.63;10617873;27;19930;-65
2023/05/21 00:48:05;;;;;;;;;;;;;;;14.11;89.32;101756.03;10598959;27;20018;-64
2023/05/21 00:53:08;;;;;;;;;;;;;;;14.06;88.84;101749.34;10584432;28;19928;-65
2023/05/21 00:58:11;;;;;;;;;;;;;;;14.20;88.04;101743.28;10582398;27;20309;-65
2023/05/21 01:03:15;;;;;;;;;;;;;;;14.37;88.05;101742.31;10559304;28;19923;-65
2023/05/21 01:08:20;;;;;;;;;;;;;;;14.48;86.37;101742.53;10583817;28;19923;-65
2023/05/21 01:13:22;;;;;;;;;;;;;;;14.35;87.48;101741.56;10576926;28;19931;-65
2023/05/21 01:18:25;;;;;;;;;;;;;;;14.52;86.73;101736.13;10580008;28;19931;-65
2023/05/21 01:23:27;;;;;;;;;;;;;;;14.39;86.76;101735.16;10563983;28;19955;-65
2023/05/21 01:28:31;;;;;;;;;;;;;;;14.30;86.78;101732.13;10581968;28;19923;-65
2023/05/21 01:33:54;;;;;;;;;;;;;;;14.10;88.93;101735.06;10568027;28;19923;-65
2023/05/21 01:39:00;;;;;;;;;;;;;;;14.35;87.75;101731.84;10582895;28;19930;-65
2023/05/21 01:44:03;;;;;;;;;;;;;;;14.33;88.38;101731.09;10564075;28;20018;-65
2023/05/21 01:49:05;;;;;;;;;;;;;;;14.36;87.96;101727.47;10564578;28;19930;-65
2023/05/21 01:54:07;;;;;;;;;;;;;;;14.27;87.32;101718.28;10546471;28;19931;-65
2023/05/21 01:59:09;;;;;;;;;;;;;;;14.12;88.06;101725.28;10532517;28;20015;-65
2023/05/21 02:04:11;;;;;;;;;;;;;;;14.10;88.88;101729.78;10581692;28;19930;-65
2023/05/21 02:09:14;;;;;;;;;;;;;;;13.89;90.00;101719.56;10581645;28;19976;-65
2023/05/21 02:14:16;;;;;;;;;;;;;;;13.68;91.04;101711.06;10582135;28;19924;-65
2023/05/21 02:19:18;;;;;;;;;;;;;;;13.82;91.75;101710.31;10581390;28;20289;-65
2023/05/21 02:24:23;;;;;;;;;;;;;;;13.73;92.15;101714.31;10562749;28;19969;-64
2023/05/21 02:29:25;;;;;;;;;;;;;;;13.55;93.16;101710.94;10603111;28;20049;-65
2023/05/21 02:34:31;;;;;;;;;;;;;;;13.30;94.53;101714.03;10626467;27;20283;-65
2023/05/21 02:39:33;;;;;;;;;;;;;;;13.20;96.45;101716.28;10606041;27;19924;-65
2023/05/21 02:44:35;;;;;;;;;;;;;;;13.17;96.82;101716.44;10587636;28;19923;-65
2023/05/21 02:49:37;;;;;;;;;;;;;;;13.14;96.78;101716.63;10588343;28;19924;-65
2023/05/21 02:54:40;;;;;;;;;;;;;;;13.29;95.68;101717.56;10587934;28;19928;-65
2023/05/21 02:59:43;;;;;;;;;;;;;;;13.14;98.11;101707.88;10589113;28;19924;-65
2023/05/21 03:04:45;;;;;;;;;;;;;;;13.11;97.47;101705.41;10569908;28;19923;-65
2023/05/21 03:09:48;;;;;;;;;;;;;;;13.15;97.30;101704.34;10570009;28;20379;-65
2023/05/21 03:14:50;;;;;;;;;;;;;;;13.13;97.55;101699.16;10587730;28;19950;-65
2023/05/21 03:19:53;;;;;;;;;;;;;;;13.03;98.77;101690.06;10587442;28;20022;-65
2023/05/21 03:24:57;;;;;;;;;;;;;;;13.06;97.80;101695.13;10587560;28;19931;-65
2023/05/21 03:29:59;;;;;;;;;;;;;;;13.12;100.00;101694.81;10568302;28;19946;-64
2023/05/21 03:35:01;;;;;;;;;;;;;;;12.95;99.83;101687.84;10623554;27;19923;-65
2023/05/21 03:40:05;;;;;;;;;;;;;;;12.99;100.00;101685.88;10584258;27;19930;-65
2023/05/21 03:45:07;;;;;;;;;;;;;;;12.94;100.00;101685.28;10628706;27;19963;-65
2023/05/21 03:50:10;;;;;;;;;;;;;;;12.85;100.00;101681.38;10584511;28;19928;-65
2023/05/21 03:55:12;;;;;;;;;;;;;;;12.89;100.00;101685.53;10585445;28;19923;-65
2023/05/21 04:00:14;;;;;;;;;;;;;;;12.94;100.00;101687.91;10585585;28;19924;-65
2023/05/21 04:05:16;;;;;;;;;;;;;;;12.99;100.00;101686.75;10585848;28;19946;-65
2023/05/21 04:10:19;;;;;;;;;;;;;;;13.34;99.66;101694.53;10584796;28;20014;-65
2023/05/21 04:15:23;;;;;;;;;;;;;;;13.33;100.00;101697.25;10585386;28;19923;-65
2023/05/21 04:20:25;;;;;;;;;;;;;;;13.51;99.91;101700.66;10586071;28;19923;-65
2023/05/21 04:25:27;;;;;;;;;;;;;;;13.53;100.00;101704.91;10574447;28;19998;-65
2023/05/21 04:30:29;;;;;;;;;;;;;;;13.62;99.57;101703.53;10584215;28;20030;-65
2023/05/21 04:35:32;;;;;;;;;;;;;;;13.55;99.55;101700.41;10624762;27;20374;-65
2023/05/21 04:40:34;;;;;;;;;;;;;;;13.66;99.22;101699.78;10563401;28;19923;-65
2023/05/21 04:45:37;;;;;;;;;;;;;;;13.70;98.96;101703.09;10585092;28;20023;-65
2023/05/21 04:50:40;;;;;;;;;;;;;;;13.92;97.54;101700.13;10552592;28;19934;-65
2023/05/21 04:55:42;;;;;;;;;;;;;;;14.07;97.33;101706.25;10583109;28;19924;-65
2023/05/21 05:00:45;;;;;;;;;;;;;;;14.09;95.30;101704.41;10583531;28;19924;-65
2023/05/21 05:05:48;;;;;;;;;;;;;;;13.98;96.00;101699.75;10566216;28;19923;-65
2023/05/21 05:10:50;;;;;;;;;;;;;;;13.88;99.04;101704.69;10582530;28;19928;-65
2023/05/21 05:15:52;;;;;;;;;;;;;;;14.00;98.67;101699.66;10582985;28;19947;-65
2023/05/21 05:20:55;;;;;;;;;;;;;;;14.04;98.01;101693.31;10580936;28;20255;-65
2023/05/21 05:25:57;;;;;;;;;;;;;;;14.23;96.55;101703.59;10584196;27;20389;-65
2023/05/21 05:31:00;;;;;;;;;;;;;;;14.26;97.45;101692.91;10584666;27;19934;-63
2023/05/21 05:36:02;;;;;;;;;;;;;;;14.49;95.88;101692.38;10625396;27;19970;-63
2023/05/21 05:41:04;;;;;;;;;;;;;;;14.87;93.32;101691.03;10574181;28;19924;-63
2023/05/21 05:46:07;;;;;;;;;;;;;;;14.47;94.94;101694.28;10582610;28;19924;-63
2023/05/21 05:51:10;;;;;;;;;;;;;;;14.97;93.68;101697.44;10579215;28;19928;-63
2023/05/21 05:56:13;;;;;;;;;;;;;;;14.72;93.83;101686.69;10582591;28;19962;-63
2023/05/21 06:01:16;;;;;;;;;;;;;;;15.30;91.80;101690.13;10582364;28;19924;-63
2023/05/21 06:06:19;;;;;;;;;;;;;;;15.02;92.55;101687.44;10581612;28;20325;-64
2023/05/21 06:11:22;;;;;;;;;;;;;;;14.98;92.08;101685.94;10587853;28;19993;-64
2023/05/21 06:16:24;;;;;;;;;;;;;;;15.26;93.24;101686.00;10590134;28;20400;-64
2023/05/21 06:21:27;;;;;;;;;;;;;;;15.39;91.04;101692.19;10590647;28;19923;-64
2023/05/21 06:26:29;;;;;;;;;;;;;;;15.50;91.81;101702.06;10589986;28;19923;-63
2023/05/21 06:31:31;;;;;;;;;;;;;;;15.05;93.40;101699.59;10596525;27;19932;-63
2023/05/21 06:36:34;;;;;;;;;;;;;;;15.69;90.96;101697.31;10607188;27;20423;-64
2023/05/21 06:41:36;;;;;;;;;;;;;;;15.32;91.26;101698.81;10589247;28;20422;-63
2023/05/21 06:46:38;;;;;;;;;;;;;;;15.54;92.07;101700.94;10587860;28;20401;-63
2023/05/21 06:51:40;;;;;;;;;;;;;;;15.60;92.85;101698.75;10589488;28;19928;-63
2023/05/21 06:56:43;;;;;;;;;;;;;;;15.20;91.87;101685.44;10588031;28;19924;-64
2023/05/21 07:01:45;;;;;;;;;;;;;;;16.20;89.80;101670.22;10588936;28;19930;-64
2023/05/21 07:06:47;;;;;;;;;;;;;;;16.19;87.60;101670.31;10588890;28;19931;-64
2023/05/21 07:11:51;;;;;;;;;;;;;;;16.77;85.57;101676.06;10588627;28;19924;-64
2023/05/21 07:16:54;;;;;;;;;;;;;;;16.55;85.25;101668.78;10587246;28;19967;-64
2023/05/21 07:21:56;;;;;;;;;;;;;;;17.09;82.80;101658.78;10570024;28;19923;-64
2023/05/21 07:26:58;;;;;;;;;;;;;;;17.31;81.60;101662.53;10587258;28;19930;-64
2023/05/21 07:32:01;;;;;;;;;;;;;;;17.29;83.75;101671.56;10587866;28;19935;-64
2023/05/21 07:37:03;;;;;;;;;;;;;;;17.14;83.38;101666.41;10555517;28;19980;-64
2023/05/21 07:42:05;;;;;;;;;;;;;;;17.61;81.34;101661.28;10568640;28;20404;-64
2023/05/21 07:47:08;;;;;;;;;;;;;;;16.89;81.87;101659.38;10587270;28;19934;-64
2023/05/21 07:52:10;;;;;;;;;;;;;;;17.47;80.90;101649.06;10569042;28;19927;-64
2023/05/21 07:57:12;;;;;;;;;;;;;;;18.45;78.58;101647.97;10586787;28;19924;-64
2023/05/21 08:02:15;;;;;;;;;;;;;;;17.99;75.83;101653.16;10586616;28;19931;-64
2023/05/21 08:07:20;;;;;;;;;;;;;;;18.61;75.88;101642.31;10586475;28;20010;-64
2023/05/21 08:12:22;;;;;;;;;;;;;;;18.41;77.37;101644.72;10567992;28;19930;-64
2023/05/21 08:17:24;;;;;;;;;;;;;;;19.28;75.80;101650.25;10585997;28;19924;-62
2023/05/21 08:22:27;;;;;;;;;;;;;;;18.96;72.76;101651.97;10585732;28;19931;-62
2023/05/21 08:27:29;;;;;;;;;;;;;;;19.38;76.17;101658.28;10585783;28;19924;-63
2023/05/21 08:32:31;;;;;;;;;;;;;;;19.74;73.11;101642.16;10584399;27;19923;-63
2023/05/21 08:37:34;;;;;;;;;;;;;;;20.08;71.94;101648.16;10627569;27;19923;-63
2023/05/21 08:42:43;;;;;;;;;;;;;;;20.13;71.72;101645.13;10627446;27;19923;-63
2023/05/21 08:47:45;;;;;;;;;;;;;;;19.97;73.19;101640.22;10576642;28;19930;-63
2023/05/21 08:52:48;;;;;;;;;;;;;;;20.41;72.58;101632.97;10582688;28;20382;-63
2023/05/21 08:57:51;;;;;;;;;;;;;;;21.02;69.74;101640.09;10582486;28;19927;-63
2023/05/21 09:02:54;;;;;;;;;;;;;;;20.40;71.22;101633.94;10582990;28;19930;-63
2023/05/21 09:08:00;;;;;;;;;;;;;;;21.29;68.02;101630.63;10565487;28;19970;-63
2023/05/21 09:13:03;;;;;;;;;;;;;;;20.96;68.48;101630.84;10583751;28;19924;-63
2023/05/21 09:18:05;;;;;;;;;;;;;;;21.32;67.51;101622.38;10565072;28;19924;-63
2023/05/21 09:23:15;;;;;;;;;;;;;;;22.64;65.80;101617.28;10564415;28;19928;-63
2023/05/21 09:28:18;;;;;;;;;;;;;;;23.32;63.25;101614.25;10582253;28;19923;-63
2023/05/21 09:33:28;;;;;;;;;;;;;;;22.26;64.94;101614.59;10582159;28;20099;-63
2023/05/21 09:38:32;;;;;;;;;;;;;;;23.16;63.14;101611.41;10581679;28;19928;-63
2023/05/21 09:43:35;;;;;;;;;;;;;;;22.26;62.93;101603.09;10581321;28;20389;-63
2023/05/21 09:48:41;;;;;;;;;;;;;;;22.47;64.91;101610.91;10581769;28;19956;-63
2023/05/21 09:53:46;;;;;;;;;;;;;;;21.26;65.85;101601.59;10581380;28;20362;-63
2023/05/21 09:58:55;;;;;;;;;;;;;;;23.04;64.34;101594.72;10581851;28;19924;-63
2023/05/21 10:03:58;;;;;;;;;;;;;;;23.79;63.01;101589.09;10580641;28;19931;-63
2023/05/21 10:09:02;;;;;;;;;;;;;;;23.00;63.47;101591.53;10580363;28;20461;-63
2023/05/21 10:14:08;;;;;;;;;;;;;;;23.50;61.42;101586.69;10580345;28;19924;-63
2023/05/21 10:19:10;;;;;;;;;;;;;;;22.47;65.28;101583.38;10580201;28;20309;-63
2023/05/21 10:24:13;;;;;;;;;;;;;;;23.97;62.54;101582.91;10581131;28;20365;-64
2023/05/21 10:29:15;;;;;;;;;;;;;;;25.10;59.82;101578.22;10580012;28;20375;-64
2023/05/21 10:34:20;;;;;;;;;;;;;;;24.10;59.84;101572.63;10580977;28;19930;-63
2023/05/21 10:39:22;;;;;;;;;;;;;;;25.18;57.50;101564.00;10580913;28;19924;-63
2023/05/21 10:44:28;;;;;;;;;;;;;;;23.82;61.49;101569.25;10581489;28;19924;-63
2023/05/21 10:49:49;;;;;;;;;;;;;;;25.61;58.24;101567.38;10580254;28;19934;-63
2023/05/21 10:54:53;;;;;;;;;;;;;;;24.64;55.99;101569.72;10583044;28;19924;-64
2023/05/21 10:59:55;;;;;;;;;;;;;;;25.83;57.51;101568.53;10588439;28;20018;-63
2023/05/21 11:04:58;;;;;;;;;;;;;;;26.07;56.39;101564.16;10587795;28;19924;-63
2023/05/21 11:10:39;;;;;;;;;;;;;;;26.13;54.62;101552.75;10587658;28;19939;-63
2023/05/21 11:16:01;;;;;;;;;;;;;;;26.43;55.33;101547.63;10416893;28;19976;-64
2023/05/21 11:21:05;;;;;;;;;;;;;;;25.72;54.90;101544.75;10561045;28;19930;-68
2023/05/21 11:26:07;;;;;;;;;;;;;;;26.45;54.50;101532.16;10585124;28;19923;-66
2023/05/21 11:31:25;;;;;;;;;;;;;;;27.32;53.68;101533.81;10615776;27;19924;-66
2023/05/21 11:36:28;;;;;;;;;;;;;;;26.75;52.25;101525.16;10630151;27;19924;-66
2023/05/21 11:41:30;;;;;;;;;;;;;;;27.60;54.05;101523.31;10573632;28;20304;-66
2023/05/21 11:46:32;;;;;;;;;;;;;;;27.37;52.59;101518.84;10587368;28;19931;-66
2023/05/21 11:51:35;;;;;;;;;;;;;;;27.06;51.35;101511.66;10586545;28;20370;-66
2023/05/21 11:56:40;;;;;;;;;;;;;;;26.36;53.16;101511.72;10586720;28;19924;-66
2023/05/21 12:01:43;;;;;;;;;;;;;;;27.60;51.51;101516.13;10587158;28;19955;-66
2023/05/21 12:06:47;;;;;;;;;;;;;;;28.76;49.84;101504.78;10585542;28;19924;-66
2023/05/21 12:11:50;;;;;;;;;;;;;;;26.83;51.90;101500.06;10585440;28;20289;-66
2023/05/21 12:16:52;;;;;;;;;;;;;;;25.12;52.74;101500.38;10568058;28;19931;-70
2023/05/21 12:21:55;;;;;;;;;;;;;;;27.25;52.79;101496.03;10565983;28;19959;-66
2023/05/21 12:27:00;;;;;;;;;;;;;;;28.71;49.17;101499.16;10552522;28;19923;-66
2023/05/21 12:32:05;;;;;;;;;;;;;;;28.49;51.07;101479.41;10578030;27;19928;-66
2023/05/21 12:37:09;;;;;;;;;;;;;;;27.64;51.59;101475.38;10589714;22;20374;-70
2023/05/21 12:42:12;;;;;;;;;;;;;;;27.50;50.81;101474.34;10566561;28;19931;-70
2023/05/21 12:47:14;;;;;;;;;;;;;;;27.51;52.03;101466.09;10566231;28;20293;-70
2023/05/21 12:52:19;;;;;;;;;;;;;;;27.42;53.14;101454.59;10566751;28;19930;-70
2023/05/21 12:57:26;;;;;;;;;;;;;;;28.07;50.72;101451.38;10549513;28;19932;-70
2023/05/21 13:02:39;;;;;;;;;;;;;;;28.08;50.06;101447.66;10535811;28;20018;-70
2023/05/21 13:07:42;;;;;;;;;;;;;;;28.19;50.91;101452.53;10566093;28;20018;-70
2023/05/21 13:12:45;;;;;;;;;;;;;;;28.62;49.21;101449.13;10583947;28;19923;-70
2023/05/21 13:17:47;;;;;;;;;;;;;;;27.72;51.62;101453.78;10564705;28;19930;-70
2023/05/21 13:22:51;;;;;;;;;;;;;;;27.29;54.32;101467.84;10583490;28;19930;-69
2023/05/21 13:27:53;;;;;;;;;;;;;;;26.62;53.12;101465.78;10548526;28;19970;-69
2023/05/21 13:32:56;;;;;;;;;;;;;;;27.63;51.44;101473.72;10565244;28;19924;-69
2023/05/21 13:37:58;;;;;;;;;;;;;;;27.29;51.74;101472.38;10564669;28;19924;-69
2023/05/21 13:43:00;;;;;;;;;;;;;;;27.16;53.02;101472.97;10582414;28;20358;-69
2023/05/21 13:48:03;;;;;;;;;;;;;;;28.25;51.71;101453.66;10564589;28;19923;-69
2023/05/21 13:53:05;;;;;;;;;;;;;;;26.71;50.45;101458.53;10582567;28;19923;-70
2023/05/21 13:58:07;;;;;;;;;;;;;;;28.39;48.92;101443.88;10564308;28;20022;-69
2023/05/21 14:03:10;;;;;;;;;;;;;;;27.99;51.08;101436.16;10564359;28;19930;-69
2023/05/21 14:08:12;;;;;;;;;;;;;;;27.03;52.18;101444.00;10581597;28;19927;-70
2023/05/21 14:13:17;;;;;;;;;;;;;;;28.63;50.69;101438.16;10582162;28;19930;-69
2023/05/21 14:18:21;;;;;;;;;;;;;;;28.42;50.26;101443.50;10582288;28;19924;-70
2023/05/21 14:23:23;;;;;;;;;;;;;;;29.07;49.83;101445.19;10539704;28;19925;-69
2023/05/21 14:28:26;;;;;;;;;;;;;;;28.43;49.84;101446.00;10539784;28;19931;-70
2023/05/21 14:33:29;;;;;;;;;;;;;;;27.72;51.08;101437.63;10544902;28;20437;-69
2023/05/21 14:38:31;;;;;;;;;;;;;;;27.50;51.55;101437.53;10546255;28;19930;-69
2023/05/21 14:43:34;;;;;;;;;;;;;;;27.52;51.92;101446.28;10547066;28;19931;-69
2023/05/21 14:48:36;;;;;;;;;;;;;;;28.14;51.90;101436.97;10571052;28;19930;-69
2023/05/21 14:53:39;;;;;;;;;;;;;;;27.93;49.63;101431.53;10570663;28;20382;-69
2023/05/21 14:58:41;;;;;;;;;;;;;;;27.42;50.50;101433.09;10571295;28;19924;-66
2023/05/21 15:03:43;;;;;;;;;;;;;;;26.64;52.60;101429.69;10571047;28;19923;-66
2023/05/21 15:08:45;;;;;;;;;;;;;;;28.51;50.01;101413.56;10588858;28;19924;-66
2023/05/21 15:13:48;;;;;;;;;;;;;;;28.59;51.67;101403.72;10588017;28;20034;-66
2023/05/21 15:18:50;;;;;;;;;;;;;;;26.11;53.39;101408.03;10588017;28;20392;-66
2023/05/21 15:23:52;;;;;;;;;;;;;;;27.54;52.36;101398.50;10587365;28;20375;-66
2023/05/21 15:28:55;;;;;;;;;;;;;;;27.84;50.44;101400.31;10588072;28;19924;-66
2023/05/21 15:33:57;;;;;;;;;;;;;;;27.76;51.32;101394.03;10569262;28;19960;-66
2023/05/21 15:39:02;;;;;;;;;;;;;;;28.10;51.06;101387.22;10568896;28;20337;-66
2023/05/21 15:44:04;;;;;;;;;;;;;;;26.67;54.08;101388.22;10567246;28;19924;-66
2023/05/21 15:49:06;;;;;;;;;;;;;;;27.30;51.88;101388.00;10586512;28;20425;-66
2023/05/21 15:54:09;;;;;;;;;;;;;;;27.77;52.16;101390.34;10587016;28;19923;-66
2023/05/21 15:59:14;;;;;;;;;;;;;;;27.51;51.15;101380.06;10567998;28;20006;-66
2023/05/21 16:04:19;;;;;;;;;;;;;;;27.25;52.01;101386.69;10586722;28;19923;-66
2023/05/21 16:09:21;;;;;;;;;;;;;;;26.32;54.55;101391.28;10568689;28;19924;-66
2023/05/21 16:14:23;;;;;;;;;;;;;;;26.68;54.66;101393.41;10568103;28;19930;-66
2023/05/21 16:19:25;;;;;;;;;;;;;;;26.25;54.00;101393.00;10567841;28;19930;-66
2023/05/21 16:24:28;;;;;;;;;;;;;;;26.51;53.42;101390.00;10585942;28;19963;-66
2023/05/21 16:29:30;;;;;;;;;;;;;;;27.24;53.82;101392.25;10585614;28;19930;-66
2023/05/21 16:34:33;;;;;;;;;;;;;;;27.55;52.42;101389.41;10584820;28;19927;-66
2023/05/21 16:39:35;;;;;;;;;;;;;;;26.60;54.28;101398.00;10584405;28;19930;-66
2023/05/21 16:44:38;;;;;;;;;;;;;;;26.29;55.20;101398.84;10566214;28;20361;-66
2023/05/21 16:49:40;;;;;;;;;;;;;;;26.84;53.75;101394.31;10565990;28;20313;-66
2023/05/21 16:54:47;;;;;;;;;;;;;;;26.54;54.32;101393.34;10584130;28;19928;-66
2023/05/21 16:59:49;;;;;;;;;;;;;;;25.60;56.31;101388.75;10583562;28;20271;-66
2023/05/21 17:04:53;;;;;;;;;;;;;;;26.09;55.83;101393.94;10582870;28;21342;-66
2023/05/21 17:09:56;;;;;;;;;;;;;;;25.60;56.44;101391.44;10584130;28;20014;-66
2023/05/21 17:14:59;;;;;;;;;;;;;;;26.10;55.74;101386.72;10583217;28;20389;-66
2023/05/21 17:20:01;;;;;;;;;;;;;;;25.15;58.83;101398.19;10565612;28;19931;-66
2023/05/21 17:25:04;;;;;;;;;;;;;;;25.06;57.88;101404.59;10565362;28;20007;-66
2023/05/21 17:30:06;;;;;;;;;;;;;;;24.87;58.50;101395.91;10583307;28;19923;-66
2023/05/21 17:35:09;;;;;;;;;;;;;;;24.39;60.28;101400.97;10582526;28;20286;-66
2023/05/21 17:40:11;;;;;;;;;;;;;;;24.32;61.42;101397.31;10582361;28;20367;-66
2023/05/21 17:45:14;;;;;;;;;;;;;;;24.50;61.46;101388.31;10582390;28;19963;-66
2023/05/21 17:50:16;;;;;;;;;;;;;;;24.55;61.20;101400.22;10527484;28;19931;-66
2023/05/21 17:55:19;;;;;;;;;;;;;;;24.15;61.53;101401.78;10539662;28;19966;-66
2023/05/21 18:00:21;;;;;;;;;;;;;;;24.18;61.48;101403.31;10539522;28;19924;-66
2023/05/21 18:05:23;;;;;;;;;;;;;;;24.24;62.11;101400.81;10556595;28;19930;-66
2023/05/21 18:10:26;;;;;;;;;;;;;;;24.02;63.15;101402.22;10521106;28;20379;-66
2023/05/21 18:15:28;;;;;;;;;;;;;;;23.72;64.58;101403.56;10538246;28;20363;-66
2023/05/21 18:20:30;;;;;;;;;;;;;;;23.88;63.42;101403.69;10538991;28;19930;-66
2023/05/21 18:25:34;;;;;;;;;;;;;;;23.69;65.03;101403.91;10537784;28;19928;-66
2023/05/21 18:30:36;;;;;;;;;;;;;;;23.45;66.24;101402.78;10538832;28;19930;-66
2023/05/21 18:35:39;;;;;;;;;;;;;;;23.44;65.93;101405.63;10539531;28;19970;-66
2023/05/21 18:40:42;;;;;;;;;;;;;;;23.18;68.00;101406.41;10538625;28;19924;-66
2023/05/21 18:45:45;;;;;;;;;;;;;;;23.12;69.99;101394.53;10525972;28;19924;-66
2023/05/21 18:50:47;;;;;;;;;;;;;;;23.07;70.36;101399.50;10538552;28;19946;-66
2023/05/21 18:55:49;;;;;;;;;;;;;;;22.60;73.07;101402.44;10538687;28;19932;-66
2023/05/21 19:00:51;;;;;;;;;;;;;;;22.49;73.42;101394.63;10537093;28;19924;-66
2023/05/21 19:05:54;;;;;;;;;;;;;;;22.11;75.05;101399.19;10554159;28;19924;-66
2023/05/21 19:10:56;;;;;;;;;;;;;;;21.80;77.93;101391.50;10580373;28;19930;-66
2023/05/21 19:15:58;;;;;;;;;;;;;;;21.47;79.88;101391.91;10551299;28;20351;-66
2023/05/21 19:21:00;;;;;;;;;;;;;;;21.44;80.27;101402.81;10587631;28;20328;-66
2023/05/21 19:26:03;;;;;;;;;;;;;;;21.01;82.44;101388.16;10557582;28;19935;-66
2023/05/21 19:31:06;;;;;;;;;;;;;;;21.06;82.12;101401.06;10544595;28;19932;-66
2023/05/21 19:36:08;;;;;;;;;;;;;;;20.72;83.63;101397.00;10541429;28;19924;-66
2023/05/21 19:41:10;;;;;;;;;;;;;;;20.59;84.04;101394.63;10538146;28;19946;-66
2023/05/21 19:46:13;;;;;;;;;;;;;;;20.48;85.18;101404.53;10587365;28;19928;-66
2023/05/21 19:51:18;;;;;;;;;;;;;;;20.15;87.23;101398.59;10558750;28;19924;-66
2023/05/21 19:56:20;;;;;;;;;;;;;;;20.06;88.53;101413.53;10549684;28;19924;-66
2023/05/21 20:01:24;;;;;;;;;;;;;;;19.99;88.88;101412.41;10545777;28;20401;-66
2023/05/21 20:06:26;;;;;;;;;;;;;;;19.67;90.48;101424.81;10534019;28;19930;-66
2023/05/21 20:11:28;;;;;;;;;;;;;;;19.78;89.54;101413.28;10524380;28;20014;-66
2023/05/21 20:16:32;;;;;;;;;;;;;;;19.64;90.73;101426.91;10525427;28;20450;-66
2023/05/21 20:21:34;;;;;;;;;;;;;;;19.47;92.56;101421.22;10542575;28;19924;-66
2023/05/21 20:26:38;;;;;;;;;;;;;;;19.44;91.85;101421.47;10542494;28;20370;-66
2023/05/21 20:31:40;;;;;;;;;;;;;;;19.36;92.63;101415.97;10542391;28;19924;-66
2023/05/21 20:36:43;;;;;;;;;;;;;;;19.40;92.28;101412.09;10540406;28;20034;-66
2023/05/21 20:41:45;;;;;;;;;;;;;;;19.38;91.19;101406.06;10581968;28;19924;-66
2023/05/21 20:46:47;;;;;;;;;;;;;;;18.92;94.85;101402.81;10567035;28;19946;-66
2023/05/21 20:51:50;;;;;;;;;;;;;;;18.93;94.67;101401.84;10548260;28;19924;-66
2023/05/21 20:56:53;;;;;;;;;;;;;;;19.04;94.67;101397.47;10571913;28;19934;-66
2023/05/21 21:01:56;;;;;;;;;;;;;;;19.00;94.18;101394.22;10537716;28;19928;-66
2023/05/21 21:07:00;;;;;;;;;;;;;;;19.03;94.24;101388.66;10552861;28;19992;-66
2023/05/21 21:12:03;;;;;;;;;;;;;;;18.93;93.72;101395.72;10560001;28;19927;-66
2023/05/21 21:17:15;;;;;;;;;;;;;;;19.04;93.46;101405.41;10566838;28;19924;-66
2023/05/21 21:22:18;;;;;;;;;;;;;;;18.90;95.87;101414.53;10583547;28;19923;-66
2023/05/21 21:27:20;;;;;;;;;;;;;;;19.00;95.38;101417.28;10549513;28;19931;-66
2023/05/21 21:32:24;;;;;;;;;;;;;;;19.05;95.89;101418.56;10582504;28;20367;-66
2023/05/21 21:37:28;;;;;;;;;;;;;;;19.12;94.84;101418.88;10554809;28;19924;-66
2023/05/21 21:42:30;;;;;;;;;;;;;;;18.96;96.63;101416.66;10582529;28;19924;-66
2023/05/21 21:47:33;;;;;;;;;;;;;;;19.19;94.67;101417.41;10570210;28;19934;-66
2023/05/21 21:52:41;;;;;;;;;;;;;;;19.22;95.29;101401.22;10569335;28;20362;-66
2023/05/21 21:57:43;;;;;;;;;;;;;;;18.89;98.05;101416.31;10564780;28;19935;-66
2023/05/21 22:02:45;;;;;;;;;;;;;;;18.87;99.21;101497.88;10578106;28;19923;-66
2023/05/21 22:07:48;;;;;;;;;;;;;;;18.99;98.05;101497.84;10582206;28;19951;-66
2023/05/21 22:12:50;;;;;;;;;;;;;;;18.81;100.00;101481.56;10552819;28;19932;-65
2023/05/21 22:17:52;;;;;;;;;;;;;;;19.01;100.00;101483.47;10555237;28;19924;-66
2023/05/21 22:22:55;;;;;;;;;;;;;;;18.96;100.00;101455.63;10563512;28;20283;-67
2023/05/21 22:27:57;;;;;;;;;;;;;;;18.63;100.00;101450.28;10581245;28;20405;-68
2023/05/21 22:33:00;;;;;;;;;;;;;;;18.69;100.00;101462.19;10569585;28;19930;-68
2023/05/21 22:38:02;;;;;;;;;;;;;;;18.90;100.00;101457.00;10580670;28;20467;-68
2023/05/21 22:43:05;;;;;;;;;;;;;;;18.31;100.00;101474.09;10578699;28;20256;-68
2023/05/21 22:48:07;;;;;;;;;;;;;;;18.30;100.00;101464.44;10508012;28;19928;-68
2023/05/21 22:53:10;;;;;;;;;;;;;;;18.26;100.00;101440.00;10568943;28;19924;-67
2023/05/21 22:58:12;;;;;;;;;;;;;;;18.59;100.00;101434.75;10565928;28;19930;-67
2023/05/21 23:03:15;;;;;;;;;;;;;;;18.62;100.00;101437.16;10583697;28;19930;-68
2023/05/21 23:08:18;;;;;;;;;;;;;;;18.49;100.00;101429.34;10588347;28;19924;-68
2023/05/21 23:13:20;;;;;;;;;;;;;;;18.51;100.00;101422.13;10582927;28;19930;-67
2023/05/21 23:18:22;;;;;;;;;;;;;;;18.69;100.00;101412.66;10570444;28;20006;-68
2023/05/21 23:23:24;;;;;;;;;;;;;;;18.36;100.00;101408.28;10570216;28;19924;-68
2023/05/21 23:28:27;;;;;;;;;;;;;;;18.56;100.00;101401.38;10577893;28;19924;-68
2023/05/21 23:33:29;;;;;;;;;;;;;;;18.63;100.00;101409.66;10560119;28;19923;-67
2023/05/21 23:38:31;;;;;;;;;;;;;;;18.26;100.00;101412.66;10587310;28;19931;-67
2023/05/21 23:43:34;;;;;;;;;;;;;;;18.34;100.00;101416.38;10564917;28;20454;-67
2023/05/21 23:48:36;;;;;;;;;;;;;;;18.31;100.00;101415.78;10587369;28;19923;-67
2023/05/21 23:53:39;;;;;;;;;;;;;;;18.26;100.00;101424.09;10554127;28;20386;-67
2023/05/21 23:58:41;;;;;;;;;;;;;;;18.53;100.00;101425.47;10544706;28;19924;-67
